Time;durP1;ratioP1;P1;durP2;ratioP2;P2;SDS_P1;SDS_P2;PMS_P1;PMS_P2;Temp;Humidity;BMP_temperature;BMP_pressure;BME280_temperature;BME280_humidity;BME280_pressure;Samples;Min_cycle;Max_cycle;Signal;HPM_P1;HPM_P2
2024/01/26 00:01:04;;;;;;;1.80;1.42;;;16.10;78.50;;;;;;5149927;27;45263;-53
2024/01/26 00:03:31;;;;;;;2.53;1.50;;;16.20;78.40;;;;;;5152180;27;45133;-53
2024/01/26 00:05:59;;;;;;;2.03;1.30;;;16.20;78.10;;;;;;5154682;27;45369;-53
2024/01/26 00:08:26;;;;;;;1.98;1.30;;;16.20;78.40;;;;;;5151426;27;47067;-53
2024/01/26 00:10:52;;;;;;;3.08;1.70;;;16.20;78.50;;;;;;5149455;27;45302;-53
2024/01/26 00:13:19;;;;;;;4.20;1.85;;;16.20;78.60;;;;;;5151072;27;45214;-53
2024/01/26 00:15:47;;;;;;;2.22;1.40;;;16.20;78.70;;;;;;5151117;27;45227;-53
2024/01/26 00:18:13;;;;;;;2.25;1.33;;;16.20;78.70;;;;;;5149702;27;47450;-53
2024/01/26 00:20:40;;;;;;;4.57;1.77;;;16.20;78.80;;;;;;5149828;27;45204;-53
2024/01/26 00:23:08;;;;;;;2.80;1.58;;;16.20;78.60;;;;;;5149790;27;45245;-53
2024/01/26 00:25:36;;;;;;;2.00;1.45;;;16.20;79.10;;;;;;5148916;27;45337;-53
2024/01/26 00:28:04;;;;;;;2.05;1.27;;;16.20;78.70;;;;;;5150859;27;45607;-53
2024/01/26 00:30:31;;;;;;;2.22;1.30;;;16.20;78.80;;;;;;5149375;27;45686;-53
2024/01/26 00:32:59;;;;;;;2.50;1.58;;;16.20;78.90;;;;;;5147563;27;44674;-53
2024/01/26 00:35:26;;;;;;;2.28;1.58;;;16.30;79.10;;;;;;5148684;27;45314;-53
2024/01/26 00:37:53;;;;;;;1.85;1.42;;;16.20;78.70;;;;;;5148972;27;47345;-53
2024/01/26 00:40:21;;;;;;;2.72;1.83;;;16.20;78.90;;;;;;5150100;27;45256;-53
2024/01/26 00:42:49;;;;;;;2.40;1.35;;;16.20;79.10;;;;;;5150962;27;45173;-53
2024/01/26 00:45:16;;;;;;;2.70;1.52;;;16.20;79.00;;;;;;5156142;27;45323;-53
2024/01/26 00:47:43;;;;;;;2.10;1.30;;;16.20;79.10;;;;;;5148339;27;45427;-53
2024/01/26 00:50:10;;;;;;;1.90;1.50;;;16.20;79.10;;;;;;5151260;27;45362;-53
2024/01/26 00:52:37;;;;;;;2.83;1.40;;;16.20;79.20;;;;;;5151613;27;45201;-53
2024/01/26 00:55:04;;;;;;;1.73;1.40;;;16.20;78.90;;;;;;5148552;27;44776;-53
2024/01/26 00:57:32;;;;;;;2.60;1.70;;;16.20;79.20;;;;;;5150895;27;46989;-53
2024/01/26 01:00:00;;;;;;;1.67;1.30;;;16.20;79.20;;;;;;5152450;27;45197;-53
2024/01/26 01:02:27;;;;;;;2.03;1.40;;;16.20;79.20;;;;;;5154710;27;45519;-53
2024/01/26 01:04:53;;;;;;;1.80;1.20;;;16.20;79.20;;;;;;5149111;27;45207;-53
2024/01/26 01:07:20;;;;;;;1.95;1.20;;;16.20;79.00;;;;;;5150899;27;46058;-53
2024/01/26 01:09:47;;;;;;;1.92;1.10;;;16.20;79.00;;;;;;5146667;27;45246;-53
2024/01/26 01:12:14;;;;;;;2.28;1.48;;;16.20;78.70;;;;;;5148160;27;45307;-53
2024/01/26 01:14:42;;;;;;;2.20;1.40;;;16.20;78.70;;;;;;5151333;27;45345;-53
2024/01/26 01:17:11;;;;;;;3.05;1.10;;;16.20;78.50;;;;;;5148408;27;46555;-53
2024/01/26 01:19:38;;;;;;;2.85;1.35;;;16.20;78.30;;;;;;5154174;27;45174;-53
2024/01/26 01:22:05;;;;;;;1.33;1.08;;;16.20;78.70;;;;;;5148348;27;45363;-53
2024/01/26 01:24:32;;;;;;;1.60;1.30;;;16.20;78.80;;;;;;5150190;27;45369;-53
2024/01/26 01:26:59;;;;;;;2.40;1.30;;;16.30;78.50;;;;;;5152038;27;45227;-53
2024/01/26 01:29:25;;;;;;;2.30;1.40;;;16.20;78.70;;;;;;5145974;27;46502;-53
2024/01/26 01:31:54;;;;;;;2.20;1.30;;;16.30;78.70;;;;;;5148912;27;44667;-53
2024/01/26 01:34:20;;;;;;;2.20;1.52;;;16.30;78.70;;;;;;5151638;27;45161;-53
2024/01/26 01:36:47;;;;;;;1.92;1.25;;;16.30;78.70;;;;;;5153392;27;45415;-54
2024/01/26 01:39:14;;;;;;;1.23;1.10;;;16.30;78.70;;;;;;5151647;27;45255;-53
2024/01/26 01:41:40;;;;;;;1.52;0.98;;;16.30;78.80;;;;;;5153813;27;45214;-53
2024/01/26 01:44:07;;;;;;;1.85;1.05;;;16.20;79.00;;;;;;5154730;27;45489;-54
2024/01/26 01:46:34;;;;;;;1.67;1.23;;;16.20;79.10;;;;;;5153653;27;45193;-53
2024/01/26 01:49:02;;;;;;;2.00;1.20;;;16.20;78.90;;;;;;5154549;27;45370;-54
2024/01/26 01:51:33;;;;;;;2.58;1.20;;;16.20;79.10;;;;;;5152409;27;45267;-53
2024/01/26 01:54:00;;;;;;;1.70;1.33;;;16.20;79.10;;;;;;5154654;27;45223;-53
2024/01/26 01:56:30;;;;;;;1.00;0.90;;;16.20;79.10;;;;;;5153079;27;45447;-53
2024/01/26 01:58:58;;;;;;;1.92;1.20;;;16.20;79.10;;;;;;5153903;27;45648;-54
2024/01/26 02:01:25;;;;;;;2.63;1.42;;;16.30;79.20;;;;;;5153912;27;45497;-54
2024/01/26 02:03:52;;;;;;;2.25;1.52;;;16.20;79.10;;;;;;5152960;27;45225;-53
2024/01/26 02:06:20;;;;;;;1.83;1.25;;;16.20;78.80;;;;;;5155158;27;45256;-54
2024/01/26 02:08:47;;;;;;;2.75;1.55;;;16.20;78.70;;;;;;5152191;27;45194;-54
2024/01/26 02:11:13;;;;;;;2.00;1.42;;;16.20;78.90;;;;;;5153413;27;45132;-53
2024/01/26 02:13:40;;;;;;;1.83;1.20;;;16.20;78.90;;;;;;5151185;27;45451;-53
2024/01/26 02:16:07;;;;;;;0.95;0.80;;;16.30;79.30;;;;;;5153417;27;48015;-53
2024/01/26 02:18:34;;;;;;;2.20;1.20;;;16.30;79.00;;;;;;5150337;27;45471;-53
2024/01/26 02:21:00;;;;;;;2.05;1.20;;;16.30;79.10;;;;;;5154640;27;45263;-53
2024/01/26 02:23:29;;;;;;;2.20;1.30;;;16.30;78.90;;;;;;5155630;27;45547;-54
2024/01/26 02:25:56;;;;;;;2.20;1.10;;;16.30;78.90;;;;;;5155689;27;45454;-54
2024/01/26 02:28:23;;;;;;;1.83;1.08;;;16.30;78.90;;;;;;5152865;27;44602;-53
2024/01/26 02:30:50;;;;;;;1.35;1.08;;;16.30;79.10;;;;;;5152991;27;45275;-53
2024/01/26 02:33:16;;;;;;;2.50;1.50;;;16.30;78.90;;;;;;5151520;27;45406;-53
2024/01/26 02:35:43;;;;;;;1.70;0.80;;;16.30;78.90;;;;;;5150993;27;46032;-54
2024/01/26 02:38:10;;;;;;;1.65;1.17;;;16.30;79.20;;;;;;5154529;27;45160;-53
2024/01/26 02:40:38;;;;;;;3.42;1.00;;;16.30;79.30;;;;;;5149142;27;45397;-54
2024/01/26 02:43:05;;;;;;;1.35;0.88;;;16.30;79.40;;;;;;5157691;27;45206;-54
2024/01/26 02:45:32;;;;;;;1.40;1.10;;;16.30;79.40;;;;;;5151469;27;47017;-53
2024/01/26 02:47:59;;;;;;;1.42;1.20;;;16.20;79.20;;;;;;5150006;27;45173;-54
2024/01/26 02:50:25;;;;;;;1.80;1.35;;;16.30;79.00;;;;;;5151169;27;45192;-54
2024/01/26 02:52:52;;;;;;;1.92;1.30;;;16.20;78.70;;;;;;5151940;27;45223;-54
2024/01/26 02:55:19;;;;;;;1.65;1.00;;;16.20;78.90;;;;;;5153501;27;46254;-54
2024/01/26 02:57:47;;;;;;;2.45;1.10;;;16.20;78.90;;;;;;5150948;27;45350;-54
2024/01/26 03:00:15;;;;;;;1.77;1.10;;;16.20;79.10;;;;;;5151924;27;45254;-54
2024/01/26 03:02:42;;;;;;;1.10;1.00;;;16.30;79.10;;;;;;5151826;27;45419;-54
2024/01/26 03:05:09;;;;;;;1.90;1.10;;;16.30;78.90;;;;;;5155122;27;47023;-54
2024/01/26 03:07:36;;;;;;;1.90;1.00;;;16.30;78.70;;;;;;5154071;27;45291;-53
2024/01/26 03:10:03;;;;;;;0.90;0.80;;;16.30;78.60;;;;;;5150815;27;45247;-53
2024/01/26 03:12:30;;;;;;;1.00;0.90;;;16.30;78.50;;;;;;5153507;27;45144;-53
2024/01/26 03:14:58;;;;;;;1.30;0.98;;;16.30;78.50;;;;;;5151730;27;44989;-53
2024/01/26 03:17:24;;;;;;;1.25;0.75;;;16.30;78.70;;;;;;5153313;27;45149;-53
2024/01/26 03:19:51;;;;;;;2.47;1.10;;;16.30;78.50;;;;;;5152286;27;45165;-53
2024/01/26 03:22:18;;;;;;;1.50;1.10;;;16.30;78.60;;;;;;5152894;27;45211;-53
2024/01/26 03:24:57;;;;;;;0.98;0.77;;;16.30;78.50;;;;;;5148496;27;46922;-54
2024/01/26 03:27:24;;;;;;;2.13;1.08;;;16.30;78.70;;;;;;5152219;27;45207;-53
2024/01/26 03:29:51;;;;;;;0.88;0.77;;;16.30;78.70;;;;;;5152455;27;44659;-53
2024/01/26 03:32:19;;;;;;;1.88;0.98;;;16.30;78.70;;;;;;5149182;27;45306;-53
2024/01/26 03:34:46;;;;;;;1.92;0.82;;;16.30;78.80;;;;;;5153380;27;45133;-53
2024/01/26 03:37:13;;;;;;;0.95;0.82;;;16.30;79.00;;;;;;5151241;27;45221;-53
2024/01/26 03:39:39;;;;;;;1.33;0.82;;;16.30;79.10;;;;;;5149168;27;45237;-54
2024/01/26 03:42:10;;;;;;;1.58;1.08;;;16.30;79.00;;;;;;5151449;27;44658;-53
2024/01/26 03:44:37;;;;;;;1.45;0.90;;;16.30;79.10;;;;;;5152590;27;46616;-53
2024/01/26 03:47:04;;;;;;;1.20;0.88;;;16.30;79.10;;;;;;5150483;27;45148;-53
2024/01/26 03:49:32;;;;;;;1.60;0.88;;;16.30;79.10;;;;;;5152876;27;45233;-53
2024/01/26 03:51:59;;;;;;;0.52;0.52;;;16.30;79.00;;;;;;5153577;27;45161;-54
2024/01/26 03:54:26;;;;;;;1.20;0.70;;;16.30;79.10;;;;;;5149921;27;45017;-53
2024/01/26 03:56:53;;;;;;;1.25;0.93;;;16.30;78.90;;;;;;5149157;27;45436;-53
2024/01/26 03:59:19;;;;;;;0.80;0.70;;;16.20;78.90;;;;;;5153667;27;45233;-53
2024/01/26 04:01:46;;;;;;;1.20;0.90;;;16.20;79.10;;;;;;5149079;27;45412;-53
2024/01/26 04:04:13;;;;;;;0.70;0.68;;;16.20;79.10;;;;;;5155685;27;45274;-53
2024/01/26 04:06:42;;;;;;;1.50;0.63;;;16.20;78.90;;;;;;5151341;27;45134;-53
2024/01/26 04:09:09;;;;;;;1.23;0.90;;;16.20;79.10;;;;;;5150634;27;45416;-53
2024/01/26 04:11:36;;;;;;;0.52;0.40;;;16.20;78.90;;;;;;5152562;27;45451;-53
2024/01/26 04:14:02;;;;;;;2.72;0.70;;;16.20;78.70;;;;;;5150439;27;46537;-54
2024/01/26 04:16:29;;;;;;;1.13;0.65;;;16.20;78.70;;;;;;5150165;27;45119;-53
2024/01/26 04:18:56;;;;;;;0.47;0.45;;;16.20;78.70;;;;;;5148674;27;44639;-54
2024/01/26 04:21:22;;;;;;;0.68;0.50;;;16.30;78.80;;;;;;5151288;27;45276;-54
2024/01/26 04:23:50;;;;;;;0.98;0.52;;;16.20;78.60;;;;;;5148686;27;45211;-53
2024/01/26 04:26:18;;;;;;;1.17;0.70;;;16.20;78.60;;;;;;5154573;27;45213;-54
2024/01/26 04:28:45;;;;;;;1.38;0.60;;;16.20;78.60;;;;;;5151877;27;45231;-54
2024/01/26 04:31:12;;;;;;;0.57;0.57;;;16.30;78.70;;;;;;5152525;27;45248;-54
2024/01/26 04:33:38;;;;;;;0.77;0.43;;;16.30;78.70;;;;;;5151924;27;46508;-53
2024/01/26 04:36:08;;;;;;;0.98;0.60;;;16.20;78.60;;;;;;5153677;27;45221;-53
2024/01/26 04:38:36;;;;;;;0.60;0.60;;;16.30;78.80;;;;;;5151258;27;45171;-53
2024/01/26 04:41:05;;;;;;;0.50;0.50;;;16.20;78.50;;;;;;5151594;27;45308;-54
2024/01/26 04:43:32;;;;;;;0.88;0.68;;;16.20;78.10;;;;;;5155393;27;45158;-53
2024/01/26 04:45:58;;;;;;;1.00;0.50;;;16.20;77.40;;;;;;5151659;27;45263;-54
2024/01/26 04:48:25;;;;;;;0.50;0.50;;;16.20;78.00;;;;;;5149990;27;45185;-54
2024/01/26 04:50:52;;;;;;;0.82;0.50;;;16.20;79.30;;;;;;5150339;27;45544;-53
2024/01/26 04:53:19;;;;;;;1.05;0.50;;;16.20;78.30;;;;;;5147732;27;46269;-54
2024/01/26 04:55:45;;;;;;;1.15;0.55;;;16.20;78.30;;;;;;5150483;27;45389;-53
2024/01/26 04:58:14;;;;;;;1.48;0.40;;;16.20;78.10;;;;;;5147474;27;45173;-53
2024/01/26 05:00:40;;;;;;;1.58;0.47;;;16.20;78.20;;;;;;5150258;27;45323;-54
2024/01/26 05:03:07;;;;;;;2.42;0.80;;;16.20;78.10;;;;;;5148631;27;47169;-53
2024/01/26 05:05:34;;;;;;;1.10;0.43;;;16.30;77.90;;;;;;5150082;27;45216;-53
2024/01/26 05:08:01;;;;;;;1.02;0.45;;;16.30;77.90;;;;;;5153879;27;44645;-53
2024/01/26 05:10:28;;;;;;;0.35;0.30;;;16.20;78.00;;;;;;5149169;27;45133;-53
2024/01/26 05:12:55;;;;;;;0.65;0.40;;;16.20;78.00;;;;;;5150065;27;46979;-54
2024/01/26 05:15:23;;;;;;;0.65;0.45;;;16.20;78.30;;;;;;5153447;27;44672;-53
2024/01/26 05:17:49;;;;;;;0.30;0.30;;;16.20;78.20;;;;;;5157444;27;45144;-54
2024/01/26 05:20:16;;;;;;;1.00;0.55;;;16.20;78.20;;;;;;5150223;27;45295;-54
2024/01/26 05:22:43;;;;;;;0.93;0.50;;;16.20;78.10;;;;;;5153414;27;46247;-53
2024/01/26 05:25:10;;;;;;;0.43;0.43;;;16.20;78.20;;;;;;5155969;27;45133;-53
2024/01/26 05:27:37;;;;;;;1.17;0.57;;;16.20;78.10;;;;;;5155468;27;45168;-53
2024/01/26 05:30:04;;;;;;;1.23;0.52;;;16.20;78.20;;;;;;5153516;27;45322;-54
2024/01/26 05:32:33;;;;;;;1.20;0.43;;;16.20;78.00;;;;;;5152657;27;45278;-54
2024/01/26 05:34:59;;;;;;;0.80;0.47;;;16.20;78.00;;;;;;5157106;27;45200;-53
2024/01/26 05:37:26;;;;;;;0.45;0.35;;;16.30;78.20;;;;;;5153684;27;45230;-53
2024/01/26 05:39:53;;;;;;;1.85;0.60;;;16.20;78.10;;;;;;5152341;27;45297;-53
2024/01/26 05:42:19;;;;;;;1.08;0.45;;;16.30;78.20;;;;;;5152864;27;47177;-53
2024/01/26 05:44:46;;;;;;;0.63;0.40;;;16.20;78.20;;;;;;5153651;27;45200;-53
2024/01/26 05:47:13;;;;;;;1.50;0.70;;;16.20;78.60;;;;;;5155477;27;45292;-53
2024/01/26 05:49:44;;;;;;;1.20;0.65;;;16.10;78.80;;;;;;5155383;27;45284;-53
2024/01/26 05:52:10;;;;;;;0.73;0.50;;;16.10;79.10;;;;;;5151665;27;45151;-54
2024/01/26 05:54:37;;;;;;;0.87;0.47;;;16.10;79.40;;;;;;5153614;27;45241;-53
2024/01/26 05:57:04;;;;;;;0.90;0.50;;;16.10;79.10;;;;;;5155735;27;45117;-54
2024/01/26 05:59:31;;;;;;;0.90;0.52;;;16.10;78.70;;;;;;5159286;27;45084;-54
2024/01/26 06:01:57;;;;;;;0.40;0.40;;;16.10;77.50;;;;;;5151398;27;46560;-54
2024/01/26 06:04:24;;;;;;;0.70;0.57;;;16.10;77.20;;;;;;5154438;27;45384;-54
2024/01/26 06:06:52;;;;;;;0.73;0.45;;;16.10;76.80;;;;;;5154378;27;45160;-53
2024/01/26 06:09:19;;;;;;;0.63;0.50;;;16.10;76.10;;;;;;5153374;27;45201;-53
2024/01/26 06:11:46;;;;;;;0.40;0.40;;;16.10;75.80;;;;;;5152434;27;46203;-54
2024/01/26 06:14:13;;;;;;;0.40;0.40;;;16.10;75.70;;;;;;5154972;27;45683;-54
2024/01/26 06:16:39;;;;;;;0.93;0.50;;;16.10;75.50;;;;;;5153222;27;45284;-54
2024/01/26 06:19:06;;;;;;;0.52;0.50;;;16.10;75.00;;;;;;5154979;27;45229;-54
2024/01/26 06:21:33;;;;;;;0.50;0.50;;;16.10;75.20;;;;;;5154327;27;45292;-54
2024/01/26 06:24:01;;;;;;;0.82;0.47;;;16.10;74.90;;;;;;5150939;27;45233;-54
2024/01/26 06:26:28;;;;;;;0.75;0.50;;;16.10;74.90;;;;;;5154377;27;45191;-54
2024/01/26 06:28:55;;;;;;;0.57;0.40;;;16.10;74.90;;;;;;5155519;27;45271;-54
2024/01/26 06:31:26;;;;;;;1.23;0.77;;;16.10;75.90;;;;;;5154937;27;46828;-54
2024/01/26 06:33:53;;;;;;;0.60;0.32;;;16.10;74.80;;;;;;5151029;27;45288;-54
2024/01/26 06:36:20;;;;;;;1.20;0.60;;;16.10;75.30;;;;;;5154102;27;45271;-54
2024/01/26 06:38:46;;;;;;;0.90;0.40;;;16.20;76.10;;;;;;5151255;27;45306;-54
2024/01/26 06:41:15;;;;;;;0.45;0.45;;;16.10;76.20;;;;;;5155595;27;47331;-54
2024/01/26 06:43:41;;;;;;;3.78;0.50;;;16.20;76.30;;;;;;5154712;27;45215;-54
2024/01/26 06:46:08;;;;;;;2.15;0.45;;;16.10;76.40;;;;;;5158179;27;45367;-54
2024/01/26 06:48:35;;;;;;;0.85;0.65;;;16.20;76.70;;;;;;5151730;27;45192;-54
2024/01/26 06:51:01;;;;;;;0.75;0.52;;;16.20;76.70;;;;;;5153207;27;47344;-53
2024/01/26 06:53:28;;;;;;;1.55;0.70;;;16.20;76.80;;;;;;5151428;27;44970;-54
2024/01/26 06:55:55;;;;;;;0.70;0.45;;;16.20;77.00;;;;;;5151586;27;45525;-53
2024/01/26 06:58:23;;;;;;;1.30;0.50;;;16.20;76.80;;;;;;5158312;27;45484;-54
2024/01/26 07:00:52;;;;;;;0.40;0.40;;;16.20;76.80;;;;;;5150688;27;45178;-53
2024/01/26 07:03:19;;;;;;;0.80;0.70;;;16.20;77.00;;;;;;5151762;27;45202;-54
2024/01/26 07:05:47;;;;;;;0.70;0.57;;;16.20;76.70;;;;;;5150326;27;45447;-54
2024/01/26 07:08:13;;;;;;;0.85;0.50;;;16.30;76.90;;;;;;5154465;27;45253;-54
2024/01/26 07:10:40;;;;;;;1.00;0.60;;;16.20;76.70;;;;;;5150518;27;45454;-54
2024/01/26 07:13:07;;;;;;;1.05;0.55;;;16.30;77.30;;;;;;5153994;27;45422;-54
2024/01/26 07:15:35;;;;;;;1.00;0.52;;;16.30;76.80;;;;;;5152518;27;45122;-54
2024/01/26 07:18:02;;;;;;;1.70;0.68;;;16.30;76.70;;;;;;5155855;27;44716;-54
2024/01/26 07:20:29;;;;;;;1.40;0.60;;;16.30;76.70;;;;;;5153309;27;45286;-54
2024/01/26 07:22:55;;;;;;;0.52;0.47;;;16.30;77.00;;;;;;5152052;27;44695;-53
2024/01/26 07:25:22;;;;;;;0.40;0.40;;;16.30;77.00;;;;;;5153322;27;45188;-53
2024/01/26 07:27:50;;;;;;;0.95;0.52;;;16.30;76.90;;;;;;5149219;27;45219;-53
2024/01/26 07:30:18;;;;;;;0.80;0.60;;;16.30;77.00;;;;;;5154796;27;47342;-53
2024/01/26 07:32:46;;;;;;;1.55;0.50;;;16.30;77.30;;;;;;5153058;27;45201;-53
2024/01/26 07:35:13;;;;;;;2.65;0.40;;;16.30;77.10;;;;;;5150442;27;45183;-53
2024/01/26 07:37:40;;;;;;;1.23;0.43;;;16.30;77.50;;;;;;5152666;27;45111;-53
2024/01/26 07:40:08;;;;;;;0.90;0.45;;;16.30;77.30;;;;;;5155314;27;47621;-54
2024/01/26 07:42:35;;;;;;;1.48;0.55;;;16.30;77.60;;;;;;5151272;27;45361;-54
2024/01/26 07:45:01;;;;;;;1.25;0.50;;;16.30;77.50;;;;;;5151374;27;45289;-53
2024/01/26 07:47:28;;;;;;;0.45;0.45;;;16.30;77.70;;;;;;5153966;27;45549;-53
2024/01/26 07:49:56;;;;;;;0.28;0.28;;;16.30;77.70;;;;;;5150424;27;46192;-53
2024/01/26 07:52:23;;;;;;;2.35;0.30;;;16.30;77.70;;;;;;5153056;27;45119;-53
2024/01/26 07:54:52;;;;;;;0.50;0.30;;;16.30;78.00;;;;;;5152130;27;45384;-53
2024/01/26 07:57:19;;;;;;;0.98;0.50;;;16.30;77.80;;;;;;5152062;27;45257;-53
2024/01/26 07:59:46;;;;;;;1.17;0.50;;;16.30;77.70;;;;;;5150647;27;46568;-53
2024/01/26 08:02:13;;;;;;;2.22;0.50;;;16.30;77.80;;;;;;5152519;27;45242;-53
2024/01/26 08:04:40;;;;;;;0.75;0.50;;;16.30;77.80;;;;;;5152515;27;45204;-53
2024/01/26 08:07:08;;;;;;;1.08;0.60;;;16.30;77.60;;;;;;5154577;27;45820;-53
2024/01/26 08:09:35;;;;;;;1.52;0.60;;;16.30;77.50;;;;;;5151984;27;45248;-53
2024/01/26 08:12:02;;;;;;;1.20;0.50;;;16.40;78.00;;;;;;5150368;27;45372;-54
2024/01/26 08:14:29;;;;;;;2.38;0.55;;;16.30;77.50;;;;;;5151333;27;45416;-53
2024/01/26 08:16:55;;;;;;;0.57;0.30;;;16.40;77.50;;;;;;5152285;27;45323;-53
2024/01/26 08:19:22;;;;;;;1.00;0.60;;;16.40;77.70;;;;;;5154001;27;47192;-53
2024/01/26 08:21:49;;;;;;;2.55;0.60;;;16.40;78.10;;;;;;5150998;27;45186;-53
2024/01/26 08:24:17;;;;;;;0.40;0.40;;;16.40;78.00;;;;;;5152694;27;44697;-54
2024/01/26 08:26:44;;;;;;;0.90;0.68;;;16.40;77.80;;;;;;5148178;27;45193;-53
2024/01/26 08:29:11;;;;;;;0.50;0.50;;;16.40;78.20;;;;;;5153673;27;45272;-54
2024/01/26 08:31:37;;;;;;;0.50;0.50;;;16.40;78.60;;;;;;5153180;27;45625;-53
2024/01/26 08:34:04;;;;;;;1.67;0.88;;;16.40;78.30;;;;;;5154919;27;45187;-54
2024/01/26 08:36:31;;;;;;;1.67;0.70;;;16.40;78.30;;;;;;5148986;27;44834;-53
2024/01/26 08:38:58;;;;;;;1.27;0.68;;;16.40;78.50;;;;;;5147412;27;46232;-53
2024/01/26 08:41:26;;;;;;;1.00;0.60;;;16.40;78.70;;;;;;5150842;27;45444;-53
2024/01/26 08:43:53;;;;;;;1.00;0.60;;;16.40;78.90;;;;;;5152314;27;45150;-53
2024/01/26 08:46:20;;;;;;;0.98;0.63;;;16.40;79.10;;;;;;5149217;27;45637;-54
2024/01/26 08:48:47;;;;;;;0.82;0.40;;;16.30;79.00;;;;;;5148675;27;48575;-53
2024/01/26 08:51:13;;;;;;;1.25;0.40;;;16.40;78.90;;;;;;5149782;27;45358;-53
2024/01/26 08:53:40;;;;;;;0.70;0.40;;;16.40;78.90;;;;;;5153117;27;45094;-53
2024/01/26 08:56:07;;;;;;;1.23;0.57;;;16.40;78.70;;;;;;5149697;27;45134;-53
2024/01/26 08:58:35;;;;;;;0.90;0.38;;;16.40;78.80;;;;;;5153723;27;46402;-54
2024/01/26 09:01:02;;;;;;;0.90;0.65;;;16.40;78.50;;;;;;5149973;27;45181;-54
2024/01/26 09:03:28;;;;;;;0.60;0.35;;;16.40;78.40;;;;;;5154651;27;45214;-53
2024/01/26 09:05:55;;;;;;;0.70;0.40;;;16.40;78.50;;;;;;5151244;27;45440;-53
2024/01/26 09:08:22;;;;;;;0.85;0.40;;;16.40;78.60;;;;;;5150643;27;47035;-53
2024/01/26 09:10:49;;;;;;;1.17;0.50;;;16.40;78.40;;;;;;5147979;27;45187;-53
2024/01/26 09:13:16;;;;;;;1.25;0.57;;;16.40;78.60;;;;;;5152881;27;45156;-53
2024/01/26 09:15:45;;;;;;;0.55;0.50;;;16.40;78.50;;;;;;5150462;27;45205;-54
2024/01/26 09:18:12;;;;;;;0.40;0.40;;;16.40;78.80;;;;;;5152690;27;45556;-54
2024/01/26 09:20:38;;;;;;;0.80;0.38;;;16.40;78.90;;;;;;5150753;27;45252;-53
2024/01/26 09:23:05;;;;;;;0.75;0.60;;;16.40;78.50;;;;;;5149224;27;45287;-53
2024/01/26 09:25:32;;;;;;;1.52;0.50;;;16.40;79.10;;;;;;5148936;27;45194;-54
2024/01/26 09:27:58;;;;;;;0.93;0.55;;;16.40;79.20;;;;;;5149345;27;46954;-53
2024/01/26 09:30:25;;;;;;;1.27;0.40;;;16.40;79.10;;;;;;5152772;27;45152;-53
2024/01/26 09:32:53;;;;;;;0.15;0.15;;;16.40;78.90;;;;;;5148949;27;45206;-54
2024/01/26 09:35:20;;;;;;;0.75;0.38;;;16.40;79.40;;;;;;5153088;27;45149;-53
2024/01/26 09:37:47;;;;;;;0.90;0.40;;;16.40;79.40;;;;;;5151561;27;45374;-54
2024/01/26 09:40:15;;;;;;;0.52;0.30;;;16.40;79.60;;;;;;5151124;27;45113;-54
2024/01/26 09:42:42;;;;;;;0.43;0.35;;;16.40;79.60;;;;;;5149555;27;45588;-53
2024/01/26 09:45:11;;;;;;;0.35;0.35;;;16.40;79.70;;;;;;5154067;27;44841;-53
2024/01/26 09:47:40;;;;;;;0.80;0.32;;;16.40;79.80;;;;;;5150555;27;47606;-53
2024/01/26 09:50:12;;;;;;;0.47;0.35;;;16.40;79.90;;;;;;5151854;27;45173;-53
2024/01/26 09:52:39;;;;;;;0.75;0.40;;;16.40;80.30;;;;;;5150328;27;45172;-53
2024/01/26 09:55:06;;;;;;;0.73;0.52;;;16.40;79.60;;;;;;5147196;27;45165;-53
2024/01/26 09:57:33;;;;;;;0.52;0.35;;;16.40;80.00;;;;;;5151528;27;46220;-53
2024/01/26 10:00:00;;;;;;;1.50;0.20;;;16.40;80.70;;;;;;5153582;27;45185;-53
2024/01/26 10:02:27;;;;;;;0.20;0.20;;;16.40;79.70;;;;;;5152070;27;45151;-53
2024/01/26 10:04:54;;;;;;;0.73;0.40;;;16.40;79.60;;;;;;5156198;27;45346;-53
2024/01/26 10:07:22;;;;;;;0.57;0.57;;;16.40;79.10;;;;;;5154881;27;46988;-53
2024/01/26 10:09:49;;;;;;;0.85;0.32;;;16.50;79.70;;;;;;5152361;27;45288;-53
2024/01/26 10:12:16;;;;;;;0.20;0.20;;;16.50;79.60;;;;;;5156472;27;45459;-54
2024/01/26 10:14:43;;;;;;;0.57;0.40;;;16.40;79.60;;;;;;5153411;27;44996;-53
2024/01/26 10:17:16;;;;;;;0.60;0.35;;;16.40;79.40;;;;;;5155809;27;46157;-53
2024/01/26 10:19:43;;;;;;;1.10;0.47;;;16.50;79.60;;;;;;5153860;27;45129;-53
2024/01/26 10:22:10;;;;;;;0.30;0.30;;;16.40;80.10;;;;;;5157419;27;45116;-53
2024/01/26 10:24:38;;;;;;;0.30;0.30;;;16.40;80.00;;;;;;5154685;27;45687;-54
2024/01/26 10:27:06;;;;;;;0.50;0.38;;;16.50;80.70;;;;;;5155834;27;46959;-53
2024/01/26 10:29:34;;;;;;;1.08;0.28;;;16.40;80.50;;;;;;5153212;27;45145;-53
2024/01/26 10:32:02;;;;;;;0.88;0.40;;;16.50;80.50;;;;;;5153574;27;45571;-54
2024/01/26 10:34:30;;;;;;;0.40;0.40;;;16.40;80.50;;;;;;5159181;27;45312;-53
2024/01/26 10:37:00;;;;;;;0.50;0.38;;;16.40;80.90;;;;;;5156068;27;45238;-53
2024/01/26 10:39:29;;;;;;;0.43;0.30;;;16.40;80.90;;;;;;5154692;27;45255;-54
2024/01/26 10:42:03;;;;;;;0.82;0.30;;;16.40;80.90;;;;;;5154320;27;45403;-53
2024/01/26 10:44:32;;;;;;;0.52;0.43;;;16.40;80.90;;;;;;5154859;27;45224;-53
2024/01/26 10:47:00;;;;;;;0.45;0.30;;;16.40;81.20;;;;;;5151953;27;46188;-53
2024/01/26 10:49:28;;;;;;;1.90;0.50;;;16.40;81.40;;;;;;5153826;27;45164;-53
2024/01/26 10:51:56;;;;;;;0.73;0.60;;;16.40;81.30;;;;;;5152085;27;45530;-53
2024/01/26 10:54:25;;;;;;;0.55;0.40;;;16.40;81.50;;;;;;5154876;27;46049;-53
2024/01/26 10:56:52;;;;;;;0.88;0.40;;;16.40;81.10;;;;;;5153192;27;45402;-53
2024/01/26 10:59:20;;;;;;;1.25;0.47;;;16.40;81.20;;;;;;5153679;27;45148;-53
2024/01/26 11:01:47;;;;;;;0.88;0.40;;;16.40;81.40;;;;;;5150646;27;45178;-54
2024/01/26 11:04:15;;;;;;;0.73;0.60;;;16.30;81.40;;;;;;5151820;27;45433;-54
2024/01/26 11:06:42;;;;;;;0.82;0.40;;;16.30;81.10;;;;;;5152577;27;47569;-53
2024/01/26 11:09:12;;;;;;;1.02;0.52;;;16.30;80.70;;;;;;5154773;27;45576;-54
2024/01/26 11:11:40;;;;;;;1.75;0.40;;;16.30;80.50;;;;;;5153729;27;45254;-53
2024/01/26 11:14:07;;;;;;;1.08;0.45;;;16.30;80.10;;;;;;5152227;27;45183;-53
2024/01/26 11:16:36;;;;;;;3.70;0.45;;;16.30;79.60;;;;;;5152315;27;45187;-53
2024/01/26 11:19:03;;;;;;;1.23;0.57;;;16.30;79.30;;;;;;5152014;27;45213;-53
2024/01/26 11:21:40;;;;;;;2.47;0.40;;;16.30;79.10;;;;;;5154295;27;44659;-53
2024/01/26 11:24:18;;;;;;;1.05;0.50;;;16.40;78.60;;;;;;5154292;27;45473;-53
2024/01/26 11:26:56;;;;;;;1.98;0.80;;;16.30;78.20;;;;;;5152166;27;47473;-54
2024/01/26 11:29:23;;;;;;;1.90;0.45;;;16.30;78.20;;;;;;5150927;27;45292;-53
2024/01/26 11:31:51;;;;;;;1.85;0.40;;;16.30;78.00;;;;;;5152747;27;45235;-54
2024/01/26 11:34:19;;;;;;;1.65;0.70;;;16.30;77.90;;;;;;5158183;27;45098;-54
2024/01/26 11:36:46;;;;;;;1.50;0.40;;;16.20;77.40;;;;;;5151320;27;46523;-54
2024/01/26 11:39:15;;;;;;;1.25;0.55;;;16.20;76.90;;;;;;5150887;27;45306;-54
2024/01/26 11:41:44;;;;;;;1.73;0.50;;;16.20;76.90;;;;;;5152699;27;44766;-54
2024/01/26 11:44:20;;;;;;;1.92;0.50;;;16.20;76.70;;;;;;5152901;27;45177;-53
2024/01/26 11:46:47;;;;;;;2.92;0.57;;;16.20;76.40;;;;;;5156397;27;45671;-53
2024/01/26 11:49:15;;;;;;;2.97;0.70;;;16.20;76.50;;;;;;5153321;27;45317;-53
2024/01/26 11:51:42;;;;;;;2.05;0.60;;;16.20;76.30;;;;;;5151818;27;45426;-53
2024/01/26 11:54:09;;;;;;;2.38;0.52;;;16.20;76.00;;;;;;5155758;27;45516;-53
2024/01/26 11:56:36;;;;;;;1.98;0.55;;;16.20;75.60;;;;;;5152648;27;47001;-53
2024/01/26 11:59:03;;;;;;;1.77;0.52;;;16.20;75.60;;;;;;5151014;27;45093;-53
2024/01/26 12:01:31;;;;;;;2.25;0.70;;;16.20;75.30;;;;;;5153889;27;45211;-53
2024/01/26 12:03:58;;;;;;;2.13;0.73;;;16.20;75.00;;;;;;5152324;27;45312;-53
2024/01/26 12:06:27;;;;;;;4.90;0.80;;;16.20;75.00;;;;;;5152636;27;45387;-53
2024/01/26 12:08:55;;;;;;;3.55;0.70;;;16.20;75.00;;;;;;5151316;27;45197;-53
2024/01/26 12:11:22;;;;;;;3.13;0.85;;;16.20;74.70;;;;;;5153499;27;45389;-53
2024/01/26 12:13:49;;;;;;;2.17;0.70;;;16.20;74.00;;;;;;5149018;27;45288;-53
2024/01/26 12:16:16;;;;;;;1.52;0.65;;;16.20;73.30;;;;;;5152909;27;48261;-53
2024/01/26 12:18:44;;;;;;;1.42;0.40;;;16.20;72.10;;;;;;5152715;27;45239;-53
2024/01/26 12:21:11;;;;;;;3.67;0.90;;;16.20;71.50;;;;;;5151392;27;45289;-53
2024/01/26 12:23:39;;;;;;;3.08;0.73;;;16.20;71.20;;;;;;5148173;27;44845;-53
2024/01/26 12:26:10;;;;;;;3.47;0.70;;;16.20;71.90;;;;;;5152078;27;45216;-53
2024/01/26 12:28:36;;;;;;;2.72;0.63;;;16.10;72.00;;;;;;5151002;27;45228;-53
2024/01/26 12:31:04;;;;;;;3.33;1.02;;;16.10;70.90;;;;;;5151436;27;45171;-53
2024/01/26 12:33:31;;;;;;;4.55;1.00;;;16.20;70.70;;;;;;5153303;27;44842;-53
2024/01/26 12:36:00;;;;;;;3.90;0.85;;;16.20;70.70;;;;;;5149632;27;45308;-53
2024/01/26 12:38:27;;;;;;;3.47;0.60;;;16.20;70.30;;;;;;5152809;27;45385;-53
2024/01/26 12:40:55;;;;;;;2.15;0.80;;;16.10;70.00;;;;;;5149394;27;45310;-53
2024/01/26 12:43:22;;;;;;;2.22;0.47;;;16.20;70.00;;;;;;5154830;27;45160;-53
2024/01/26 12:45:51;;;;;;;2.63;0.55;;;16.10;69.70;;;;;;5151641;27;47478;-53
2024/01/26 12:48:19;;;;;;;2.22;0.82;;;16.20;69.70;;;;;;5151772;27;45214;-53